createdAt,value
2023-05-21T00:00:11.397Z,15.15
2023-05-21T00:02:37.403Z,17.42
2023-05-21T00:05:03.469Z,17.13
2023-05-21T00:07:30.843Z,17.25
2023-05-21T00:09:56.825Z,15.63
2023-05-21T00:12:22.596Z,15.95
2023-05-21T00:14:48.376Z,17.05
2023-05-21T00:17:14.161Z,15.60
2023-05-21T00:19:39.962Z,16.65
2023-05-21T00:22:05.821Z,15.45
2023-05-21T00:24:31.579Z,16.42
2023-05-21T00:26:57.370Z,17.25
2023-05-21T00:29:23.634Z,16.77
2023-05-21T00:31:50.504Z,16.33
2023-05-21T00:34:16.498Z,16.52
2023-05-21T00:36:44.799Z,17.65
2023-05-21T00:39:10.985Z,13.70
2023-05-21T00:41:39.388Z,16.15
2023-05-21T00:44:05.771Z,16.92
2023-05-21T00:46:31.820Z,19.40
2023-05-21T00:48:58.214Z,15.60
2023-05-21T00:51:24.120Z,18.70
2023-05-21T00:53:50.847Z,18.33
2023-05-21T00:56:16.772Z,14.25
2023-05-21T00:58:42.556Z,16.90
2023-05-21T01:01:12.963Z,18.40
2023-05-21T01:03:40.295Z,21.27
2023-05-21T01:06:06.797Z,21.42
2023-05-21T01:08:34.258Z,20.30
2023-05-21T01:11:01.832Z,21.25
2023-05-21T01:13:28.267Z,19.05
2023-05-21T01:15:54.227Z,18.33
2023-05-21T01:18:20.707Z,19.98
2023-05-21T01:20:49.598Z,17.17
2023-05-21T01:23:18.654Z,19.27
2023-05-21T01:25:44.652Z,15.75
2023-05-21T01:28:10.702Z,20.70
2023-05-21T01:30:37.415Z,19.10
2023-05-21T01:33:07.087Z,21.33
2023-05-21T01:35:34.679Z,21.20
2023-05-21T01:38:13.460Z,19.70
2023-05-21T01:40:47.483Z,18.35
2023-05-21T01:43:13.655Z,22.73
2023-05-21T01:45:41.476Z,19.50
2023-05-21T01:48:08.423Z,17.90
2023-05-21T01:50:35.199Z,21.42
2023-05-21T01:53:03.024Z,19.25
2023-05-21T01:55:30.579Z,19.67
2023-05-21T01:57:56.923Z,20.05
2023-05-21T02:00:24.139Z,20.27
2023-05-21T02:02:51.080Z,22.75
2023-05-21T02:05:17.265Z,18.67
2023-05-21T02:07:44.586Z,20.70
2023-05-21T02:10:10.869Z,18.45
2023-05-21T02:12:36.913Z,19.73
2023-05-21T02:15:03.378Z,22.02
2023-05-21T02:17:33.454Z,24.63
2023-05-21T02:20:10.801Z,21.00
2023-05-21T02:22:37.758Z,20.98
2023-05-21T02:25:04.046Z,21.85
2023-05-21T02:27:31.868Z,19.73
2023-05-21T02:29:58.606Z,21.58
2023-05-21T02:32:24.430Z,23.45
2023-05-21T02:34:50.475Z,19.75
2023-05-21T02:37:16.952Z,19.58
2023-05-21T02:39:42.700Z,27.08
2023-05-21T02:42:08.463Z,22.85
2023-05-21T02:44:34.232Z,21.02
2023-05-21T02:47:00.010Z,24.15
2023-05-21T02:49:25.800Z,19.05
2023-05-21T02:51:51.559Z,20.48
2023-05-21T02:54:17.337Z,20.95
2023-05-21T02:56:43.106Z,24.60
2023-05-21T02:59:08.881Z,28.10
2023-05-21T03:01:34.774Z,19.33
2023-05-21T03:04:00.574Z,21.63
2023-05-21T03:06:26.378Z,18.77
2023-05-21T03:08:52.168Z,23.83
2023-05-21T03:11:18.405Z,18.92
2023-05-21T03:13:44.273Z,21.30
2023-05-21T03:16:10.466Z,23.65
2023-05-21T03:18:36.235Z,21.90
2023-05-21T03:21:02.107Z,19.45
2023-05-21T03:23:27.854Z,21.52
2023-05-21T03:25:53.644Z,21.52
2023-05-21T03:28:19.435Z,19.27
2023-05-21T03:30:45.730Z,24.30
2023-05-21T03:33:13.311Z,21.70
2023-05-21T03:35:39.244Z,21.33
2023-05-21T03:38:05.168Z,23.00
2023-05-21T03:40:30.962Z,19.35
2023-05-21T03:42:56.767Z,24.48
2023-05-21T03:45:22.526Z,22.63
2023-05-21T03:47:48.816Z,19.98
2023-05-21T03:50:15.084Z,28.58
2023-05-21T03:52:40.876Z,28.40
2023-05-21T03:55:06.854Z,20.17
2023-05-21T03:57:32.636Z,20.42
2023-05-21T03:59:58.401Z,22.52
2023-05-21T04:02:27.552Z,20.30
2023-05-21T04:04:55.138Z,22.98
2023-05-21T04:07:21.659Z,20.02
2023-05-21T04:09:47.661Z,19.58
2023-05-21T04:12:13.512Z,18.80
2023-05-21T04:14:39.322Z,18.67
2023-05-21T04:17:05.365Z,16.92
2023-05-21T04:19:31.779Z,19.50
2023-05-21T04:21:57.631Z,21.73
2023-05-21T04:24:23.909Z,14.60
2023-05-21T04:26:49.697Z,17.40
2023-05-21T04:29:20.472Z,20.48
2023-05-21T04:31:49.244Z,20.80
2023-05-21T04:34:18.413Z,16.77
2023-05-21T04:36:44.812Z,17.95
2023-05-21T04:39:11.656Z,22.58
2023-05-21T04:41:38.302Z,15.90
2023-05-21T04:44:05.705Z,16.75
2023-05-21T04:46:31.580Z,16.80
2023-05-21T04:48:57.549Z,17.80
2023-05-21T04:51:26.349Z,15.25
2023-05-21T04:53:53.194Z,16.55
2023-05-21T04:56:19.343Z,17.10
2023-05-21T04:58:47.180Z,16.48
2023-05-21T05:01:13.122Z,19.55
2023-05-21T05:03:39.052Z,14.25
2023-05-21T05:06:05.122Z,16.98
2023-05-21T05:08:31.039Z,16.80
2023-05-21T05:10:56.812Z,14.57
2023-05-21T05:13:22.573Z,15.25
2023-05-21T05:15:50.207Z,18.33
2023-05-21T05:18:16.847Z,17.92
2023-05-21T05:20:42.770Z,20.92
2023-05-21T05:23:08.560Z,16.88
2023-05-21T05:25:34.314Z,13.35
2023-05-21T05:28:00.133Z,15.63
2023-05-21T05:30:26.179Z,17.13
2023-05-21T05:32:52.001Z,17.30
2023-05-21T05:35:17.768Z,20.27
2023-05-21T05:37:43.541Z,17.10
2023-05-21T05:40:09.824Z,16.05
2023-05-21T05:42:35.643Z,17.10
2023-05-21T05:45:01.440Z,15.63
2023-05-21T05:47:27.460Z,16.70
2023-05-21T05:49:53.402Z,19.88
2023-05-21T05:52:19.163Z,17.90
2023-05-21T05:54:45.264Z,17.85
2023-05-21T05:57:11.037Z,17.70
2023-05-21T05:59:36.840Z,20.30
2023-05-21T06:02:02.650Z,17.67
2023-05-21T06:04:29.336Z,20.33
2023-05-21T06:06:56.968Z,17.70
2023-05-21T06:09:23.299Z,15.73
2023-05-21T06:11:49.223Z,16.45
2023-05-21T06:14:15.131Z,16.02
2023-05-21T06:16:41.001Z,16.50
2023-05-21T06:19:06.965Z,18.38
2023-05-21T06:21:32.835Z,18.63
2023-05-21T06:23:58.876Z,16.27
2023-05-21T06:26:24.837Z,22.38
2023-05-21T06:28:50.690Z,19.60
2023-05-21T06:31:16.564Z,17.48
2023-05-21T06:33:42.451Z,17.10
2023-05-21T06:36:08.480Z,16.88
2023-05-21T06:38:34.283Z,16.85
2023-05-21T06:41:00.348Z,18.50
2023-05-21T06:43:28.064Z,18.35
2023-05-21T06:45:53.848Z,18.38
2023-05-21T06:48:19.915Z,19.27
2023-05-21T06:50:45.746Z,20.60
2023-05-21T06:53:13.230Z,15.43
2023-05-21T06:55:39.199Z,16.40
2023-05-21T06:58:05.052Z,14.68
2023-05-21T07:00:30.933Z,17.92
2023-05-21T07:02:56.888Z,17.63
2023-05-21T07:05:22.775Z,17.15
2023-05-21T07:07:48.652Z,14.73
2023-05-21T07:10:14.643Z,20.20
2023-05-21T07:12:46.615Z,12.27
2023-05-21T07:15:12.532Z,16.55
2023-05-21T07:17:38.410Z,16.08
2023-05-21T07:20:07.803Z,18.60
2023-05-21T07:22:34.094Z,13.57
2023-05-21T07:24:59.963Z,16.65
2023-05-21T07:27:26.399Z,20.42
2023-05-21T07:29:52.630Z,14.85
2023-05-21T07:32:18.569Z,15.23
2023-05-21T07:34:44.467Z,16.52
2023-05-21T07:37:10.430Z,13.73
2023-05-21T07:39:37.284Z,15.20
2023-05-21T07:42:03.227Z,18.38
2023-05-21T07:44:29.105Z,15.82
2023-05-21T07:46:55.368Z,16.77
2023-05-21T07:49:21.200Z,13.68
2023-05-21T07:51:47.093Z,15.10
2023-05-21T07:54:13.005Z,14.85
2023-05-21T07:56:38.855Z,19.48
2023-05-21T07:59:05.383Z,17.02
2023-05-21T08:01:32.440Z,17.02
2023-05-21T08:04:00.741Z,14.82
2023-05-21T08:06:26.799Z,14.43
2023-05-21T08:08:53.789Z,15.02
2023-05-21T08:11:21.233Z,12.90
2023-05-21T08:13:50.267Z,15.73
2023-05-21T08:16:16.825Z,16.20
2023-05-21T08:18:42.783Z,15.60
2023-05-21T08:21:08.856Z,12.68
2023-05-21T08:23:34.664Z,13.50
2023-05-21T08:26:00.865Z,17.17
2023-05-21T08:28:28.178Z,11.52
2023-05-21T08:30:54.309Z,14.45
2023-05-21T08:33:21.123Z,14.00
2023-05-21T08:35:47.443Z,11.68
2023-05-21T08:38:13.303Z,17.23
2023-05-21T08:40:40.878Z,17.33
2023-05-21T08:43:06.828Z,9.68
2023-05-21T08:45:37.534Z,11.90
2023-05-21T08:48:05.106Z,12.85
2023-05-21T08:50:31.313Z,14.15
2023-05-21T08:52:58.325Z,12.90
2023-05-21T08:55:24.379Z,13.93
2023-05-21T08:57:50.207Z,10.75
2023-05-21T09:00:16.291Z,11.15
2023-05-21T09:02:44.165Z,10.27
2023-05-21T09:05:11.211Z,16.25
2023-05-21T09:08:04.763Z,14.13
2023-05-21T09:10:38.655Z,12.82
2023-05-21T09:13:10.895Z,12.55
2023-05-21T09:15:37.080Z,10.75
2023-05-21T09:18:03.250Z,11.68
2023-05-21T09:20:29.826Z,9.77
2023-05-21T09:22:55.752Z,11.18
2023-05-21T09:25:24.629Z,17.30
2023-05-21T09:27:50.678Z,11.95
2023-05-21T09:30:17.379Z,11.77
2023-05-21T09:32:44.013Z,13.82
2023-05-21T09:35:13.646Z,10.07
2023-05-21T09:37:44.410Z,10.93
2023-05-21T09:40:11.068Z,11.52
2023-05-21T09:42:47.076Z,10.88
2023-05-21T09:45:17.440Z,11.13
2023-05-21T09:47:43.985Z,10.38
2023-05-21T09:50:10.804Z,9.50
2023-05-21T09:52:37.167Z,8.60
2023-05-21T09:55:03.873Z,9.75
2023-05-21T09:57:29.850Z,7.57
2023-05-21T09:59:55.731Z,10.02
2023-05-21T10:02:22.299Z,10.00
2023-05-21T10:04:52.345Z,8.95
2023-05-21T10:07:25.282Z,12.27
2023-05-21T10:09:55.916Z,13.02
2023-05-21T10:12:22.886Z,7.20
2023-05-21T10:14:51.576Z,7.30
2023-05-21T10:17:18.055Z,6.57
2023-05-21T10:19:45.852Z,11.80
2023-05-21T10:22:12.468Z,7.97
2023-05-21T10:24:39.544Z,7.18
2023-05-21T10:27:06.564Z,10.85
2023-05-21T10:29:33.138Z,9.43
2023-05-21T10:32:00.557Z,8.38
2023-05-21T10:34:27.518Z,8.80
2023-05-21T10:36:55.197Z,8.65
2023-05-21T10:39:21.611Z,9.27
2023-05-21T10:42:17.006Z,7.45
2023-05-21T10:45:07.575Z,4.97
2023-05-21T10:47:39.497Z,6.45
2023-05-21T10:50:24.227Z,7.63
2023-05-21T10:52:56.454Z,8.50
2023-05-21T10:55:57.997Z,9.88
2023-05-21T10:58:31.919Z,8.20
2023-05-21T11:00:58.775Z,5.53
2023-05-21T11:03:25.172Z,5.93
2023-05-21T11:05:52.322Z,9.13
2023-05-21T11:08:21.065Z,5.90
2023-05-21T11:10:51.379Z,6.25
2023-05-21T11:15:57.741Z,7.38
2023-05-21T11:18:43.895Z,5.55
2023-05-21T11:21:10.593Z,6.60
2023-05-21T11:23:51.854Z,8.68
2023-05-21T11:26:24.211Z,6.22
2023-05-21T11:29:06.029Z,5.88
2023-05-21T11:31:38.921Z,13.48
2023-05-21T11:34:08.201Z,4.82
2023-05-21T11:36:36.856Z,7.95
2023-05-21T11:39:11.061Z,5.43
2023-05-21T11:41:50.098Z,10.95
2023-05-21T11:44:16.138Z,6.47
2023-05-21T11:46:42.481Z,5.90
2023-05-21T11:49:08.902Z,5.97
2023-05-21T11:51:35.846Z,5.32
2023-05-21T11:54:02.219Z,6.38
2023-05-21T11:56:28.369Z,7.32
2023-05-21T11:58:55.368Z,7.32
2023-05-21T12:01:22.341Z,7.43
2023-05-21T12:03:48.649Z,8.40
2023-05-21T12:06:16.797Z,8.70
2023-05-21T12:08:42.633Z,5.50
2023-05-21T12:11:08.655Z,8.27
2023-05-21T12:13:37.649Z,5.15
2023-05-21T12:16:06.698Z,5.32
2023-05-21T12:18:33.062Z,7.87
2023-05-21T12:21:00.290Z,5.82
2023-05-21T12:23:26.286Z,13.25
2023-05-21T12:25:53.032Z,9.10
2023-05-21T12:28:21.024Z,5.60
2023-05-21T12:30:47.136Z,6.32
2023-05-21T12:33:13.598Z,7.40
2023-05-21T12:35:39.689Z,8.20
2023-05-21T12:38:06.847Z,6.45
2023-05-21T12:40:37.740Z,5.25
2023-05-21T12:43:09.108Z,8.38
2023-05-21T12:45:36.622Z,9.80
2023-05-21T12:48:04.156Z,5.85
2023-05-21T12:50:30.074Z,6.38
2023-05-21T12:52:57.323Z,12.05
2023-05-21T12:55:24.719Z,4.65
2023-05-21T12:57:51.448Z,7.55
2023-05-21T13:00:22.991Z,10.40
2023-05-21T13:02:48.936Z,6.90
2023-05-21T13:05:18.060Z,5.55
2023-05-21T13:07:46.346Z,5.40
2023-05-21T13:10:12.717Z,10.85
2023-05-21T13:12:43.470Z,5.75
2023-05-21T13:15:10.568Z,7.90
2023-05-21T13:17:36.656Z,7.05
2023-05-21T13:20:08.615Z,14.30
2023-05-21T13:22:35.264Z,4.47
2023-05-21T13:25:01.865Z,9.90
2023-05-21T13:27:27.919Z,7.05
2023-05-21T13:29:54.306Z,5.78
2023-05-21T13:32:20.888Z,4.43
2023-05-21T13:34:47.509Z,7.80
2023-05-21T13:37:13.669Z,6.22
2023-05-21T13:39:39.584Z,7.55
2023-05-21T13:42:05.613Z,5.55
2023-05-21T13:44:35.528Z,7.35
2023-05-21T13:47:05.618Z,6.82
2023-05-21T13:49:32.852Z,8.93
2023-05-21T13:52:00.341Z,4.72
2023-05-21T13:54:26.624Z,5.47
2023-05-21T13:56:52.718Z,5.65
2023-05-21T13:59:18.688Z,9.88
2023-05-21T14:01:45.124Z,11.35
2023-05-21T14:04:11.527Z,6.70
2023-05-21T14:06:37.697Z,5.40
2023-05-21T14:09:03.868Z,6.63
2023-05-21T14:11:30.834Z,10.30
2023-05-21T14:13:56.792Z,7.97
2023-05-21T14:16:24.220Z,5.45
2023-05-21T14:18:50.631Z,6.13
2023-05-21T14:21:16.772Z,9.73
2023-05-21T14:23:42.658Z,9.57
2023-05-21T14:26:08.567Z,6.68
2023-05-21T14:28:34.471Z,6.97
2023-05-21T14:31:01.052Z,5.93
2023-05-21T14:33:29.490Z,5.68
2023-05-21T14:35:55.532Z,8.52
2023-05-21T14:38:21.472Z,6.32
2023-05-21T14:40:49.043Z,5.78
2023-05-21T14:43:21.255Z,8.57
2023-05-21T14:45:47.205Z,6.45
2023-05-21T14:48:13.152Z,8.27
2023-05-21T14:50:39.397Z,5.30
2023-05-21T14:53:08.273Z,7.60
2023-05-21T14:55:37.068Z,6.70
2023-05-21T14:58:04.120Z,8.27
2023-05-21T15:00:30.760Z,4.10
2023-05-21T15:02:57.506Z,4.80
2023-05-21T15:05:24.218Z,7.95
2023-05-21T15:07:50.308Z,7.80
2023-05-21T15:10:18.581Z,6.35
2023-05-21T15:12:49.953Z,6.82
2023-05-21T15:15:16.691Z,5.88
2023-05-21T15:17:43.227Z,6.03
2023-05-21T15:20:09.713Z,7.55
2023-05-21T15:22:36.013Z,6.30
2023-05-21T15:25:03.060Z,5.80
2023-05-21T15:27:28.912Z,5.47
2023-05-21T15:29:55.246Z,9.10
2023-05-21T15:32:21.247Z,5.85
2023-05-21T15:34:50.734Z,7.75
2023-05-21T15:37:17.026Z,4.97
2023-05-21T15:39:43.793Z,6.97
2023-05-21T15:42:11.072Z,5.65
2023-05-21T15:44:59.905Z,7.93
2023-05-21T15:47:25.927Z,5.15
2023-05-21T15:49:52.368Z,4.78
2023-05-21T15:52:19.442Z,7.22
2023-05-21T15:54:46.246Z,6.28
2023-05-21T15:57:12.259Z,5.43
2023-05-21T15:59:38.189Z,7.00
2023-05-21T16:02:04.143Z,8.55
2023-05-21T16:04:32.422Z,14.07
2023-05-21T16:06:58.221Z,6.05
2023-05-21T16:09:24.148Z,9.98
2023-05-21T16:11:50.287Z,5.13
2023-05-21T16:14:16.114Z,7.00
2023-05-21T16:16:42.017Z,5.10
2023-05-21T16:19:08.612Z,6.78
2023-05-21T16:21:34.603Z,7.13
2023-05-21T16:24:00.953Z,6.85
2023-05-21T16:26:27.023Z,9.23
2023-05-21T16:28:52.991Z,11.35
2023-05-21T16:31:18.908Z,6.57
2023-05-21T16:33:44.792Z,5.72
2023-05-21T16:36:11.069Z,4.20
2023-05-21T16:38:37.546Z,11.93
2023-05-21T16:41:03.422Z,5.30
2023-05-21T16:43:32.377Z,7.18
2023-05-21T16:45:58.340Z,10.18
2023-05-21T16:48:24.268Z,6.57
2023-05-21T16:50:50.387Z,8.45
2023-05-21T16:53:16.595Z,8.80
2023-05-21T16:55:42.692Z,9.30
2023-05-21T16:58:10.120Z,8.30
2023-05-21T17:00:36.393Z,6.78
2023-05-21T17:03:02.629Z,6.25
2023-05-21T17:05:28.611Z,8.65
2023-05-21T17:07:55.077Z,5.65
2023-05-21T17:10:21.028Z,5.88
2023-05-21T17:13:01.820Z,5.53
2023-05-21T17:15:32.750Z,7.90
2023-05-21T17:17:59.104Z,8.35
2023-05-21T17:20:25.867Z,5.20
2023-05-21T17:22:51.799Z,8.10
2023-05-21T17:25:18.114Z,8.43
2023-05-21T17:27:43.932Z,5.55
2023-05-21T17:30:10.146Z,4.68
2023-05-21T17:32:36.059Z,5.30
2023-05-21T17:35:02.103Z,7.70
2023-05-21T17:37:28.255Z,6.80
2023-05-21T17:39:54.068Z,6.78
2023-05-21T17:42:20.588Z,5.40
2023-05-21T17:45:23.684Z,5.20
2023-05-21T17:47:49.810Z,8.82
2023-05-21T17:50:16.022Z,8.20
2023-05-21T17:52:41.999Z,9.55
2023-05-21T17:55:08.157Z,6.25
2023-05-21T17:57:35.239Z,10.45
2023-05-21T18:00:01.576Z,5.93
2023-05-21T18:02:27.545Z,9.32
2023-05-21T18:04:53.629Z,4.72
2023-05-21T18:07:19.624Z,8.63
2023-05-21T18:09:45.517Z,7.75
2023-05-21T18:12:11.444Z,9.10
2023-05-21T18:14:37.393Z,8.35
2023-05-21T18:17:03.362Z,6.30
2023-05-21T18:19:30.622Z,6.82
2023-05-21T18:21:56.865Z,9.35
2023-05-21T18:24:22.842Z,4.72
2023-05-21T18:26:48.998Z,4.63
2023-05-21T18:29:14.867Z,7.07
2023-05-21T18:31:42.934Z,4.72
2023-05-21T18:34:09.078Z,8.95
2023-05-21T18:36:38.066Z,5.53
2023-05-21T18:39:05.218Z,5.32
2023-05-21T18:41:31.243Z,5.32
2023-05-21T18:44:09.510Z,8.77
2023-05-21T18:46:35.772Z,7.18
2023-05-21T18:49:01.802Z,4.03
2023-05-21T18:51:27.750Z,6.97
2023-05-21T18:53:53.650Z,5.45
2023-05-21T18:56:19.491Z,4.55
2023-05-21T18:58:45.684Z,8.95
2023-05-21T19:01:11.580Z,5.70
2023-05-21T19:03:37.696Z,5.90
2023-05-21T19:06:03.538Z,5.00
2023-05-21T19:08:29.402Z,3.83
2023-05-21T19:10:55.277Z,6.00
2023-05-21T19:13:22.041Z,7.75
2023-05-21T19:15:48.372Z,6.60
2023-05-21T19:18:14.422Z,4.20
2023-05-21T19:20:40.442Z,6.00
2023-05-21T19:23:06.493Z,5.78
2023-05-21T19:25:32.317Z,4.68
2023-05-21T19:28:00.050Z,5.65
2023-05-21T19:30:26.344Z,6.05
2023-05-21T19:32:52.476Z,7.13
2023-05-21T19:35:18.542Z,4.97
2023-05-21T19:37:44.551Z,5.00
2023-05-21T19:40:10.672Z,6.28
2023-05-21T19:42:42.117Z,4.82
2023-05-21T19:45:08.966Z,5.25
2023-05-21T19:47:35.385Z,8.07
2023-05-21T19:50:01.766Z,8.93
2023-05-21T19:52:27.646Z,6.97
2023-05-21T19:54:53.544Z,6.50
2023-05-21T19:57:19.428Z,12.05
2023-05-21T19:59:45.248Z,5.10
2023-05-21T20:02:12.642Z,14.07
2023-05-21T20:04:38.500Z,6.50
2023-05-21T20:07:04.846Z,8.00
2023-05-21T20:09:33.497Z,6.32
2023-05-21T20:11:59.481Z,6.72
2023-05-21T20:14:25.300Z,9.15
2023-05-21T20:16:53.024Z,7.05
2023-05-21T20:19:21.846Z,10.52
2023-05-21T20:21:48.040Z,5.00
2023-05-21T20:24:14.194Z,5.80
2023-05-21T20:26:40.218Z,7.18
2023-05-21T20:29:07.419Z,6.40
2023-05-21T20:31:33.472Z,10.43
2023-05-21T20:34:00.320Z,6.53
2023-05-21T20:36:26.517Z,4.20
2023-05-21T20:38:52.490Z,4.63
2023-05-21T20:41:19.506Z,8.27
2023-05-21T20:43:48.523Z,5.38
2023-05-21T20:46:16.678Z,7.28
2023-05-21T20:48:43.168Z,7.55
2023-05-21T20:51:09.161Z,5.95
2023-05-21T20:53:35.071Z,5.43
2023-05-21T20:56:00.968Z,4.78
2023-05-21T20:58:27.218Z,5.45
2023-05-21T21:00:54.545Z,4.10
2023-05-21T21:03:20.995Z,5.32
2023-05-21T21:05:47.039Z,7.13
2023-05-21T21:08:15.478Z,7.82
2023-05-21T21:10:42.097Z,6.47
2023-05-21T21:13:13.606Z,5.88
2023-05-21T21:15:39.536Z,5.18
2023-05-21T21:18:05.404Z,8.25
2023-05-21T21:20:31.280Z,4.88
2023-05-21T21:22:57.051Z,6.50
2023-05-21T21:25:22.864Z,6.43
2023-05-21T21:27:48.661Z,5.15
2023-05-21T21:30:14.453Z,5.60
2023-05-21T21:32:40.497Z,5.18
2023-05-21T21:35:06.395Z,6.15
2023-05-21T21:37:32.155Z,4.88
2023-05-21T21:39:57.995Z,4.70
2023-05-21T21:42:23.919Z,5.93
2023-05-21T21:44:49.732Z,8.95
2023-05-21T21:47:15.512Z,4.97
2023-05-21T21:49:41.327Z,3.47
2023-05-21T21:52:07.502Z,6.30
2023-05-21T21:54:33.550Z,7.78
2023-05-21T21:56:59.402Z,6.80
2023-05-21T21:59:25.177Z,5.13
2023-05-21T22:01:50.988Z,4.50
2023-05-21T22:04:16.880Z,4.65
2023-05-21T22:06:44.600Z,8.13
2023-05-21T22:09:10.500Z,3.72
2023-05-21T22:11:36.322Z,5.57
2023-05-21T22:14:02.192Z,5.47
2023-05-21T22:16:28.394Z,4.20
2023-05-21T22:18:54.457Z,4.60
2023-05-21T22:21:20.842Z,4.57
2023-05-21T22:23:46.673Z,8.27
2023-05-21T22:26:12.457Z,6.35
2023-05-21T22:28:38.266Z,6.78
2023-05-21T22:31:04.233Z,4.90
2023-05-21T22:33:30.651Z,4.88
2023-05-21T22:35:56.450Z,6.78
2023-05-21T22:38:22.232Z,4.22
2023-05-21T22:40:48.000Z,7.78
2023-05-21T22:43:13.811Z,4.47
2023-05-21T22:45:39.955Z,7.57
2023-05-21T22:48:08.715Z,4.47
2023-05-21T22:50:35.188Z,4.55
2023-05-21T22:53:01.125Z,7.60
2023-05-21T22:55:26.884Z,5.93
2023-05-21T22:57:52.684Z,5.35
2023-05-21T23:00:18.622Z,5.10
2023-05-21T23:02:47.894Z,7.07
2023-05-21T23:05:13.892Z,5.03
2023-05-21T23:07:40.686Z,6.88
2023-05-21T23:10:06.991Z,3.88
2023-05-21T23:12:32.819Z,4.85
2023-05-21T23:14:58.691Z,5.13
2023-05-21T23:17:24.512Z,5.07
2023-05-21T23:19:51.713Z,5.05
2023-05-21T23:22:18.300Z,4.70
2023-05-21T23:24:44.171Z,3.65
2023-05-21T23:27:10.159Z,7.45
2023-05-21T23:29:35.954Z,8.48
2023-05-21T23:32:04.336Z,6.07
2023-05-21T23:34:30.698Z,6.18
2023-05-21T23:36:58.723Z,7.65
2023-05-21T23:39:26.389Z,5.90
2023-05-21T23:41:52.183Z,5.07
2023-05-21T23:44:19.609Z,19.33
2023-05-21T23:46:45.456Z,7.30
2023-05-21T23:49:11.229Z,5.53
2023-05-21T23:51:37.275Z,5.90
2023-05-21T23:54:03.172Z,5.40
2023-05-21T23:56:29.222Z,8.10
2023-05-21T23:58:54.994Z,6.18
